• Join FlightAware (Why Join?)
  • Login
  • US Flag 
04:05PM EDT


 

Airport Tracker/Info


-or-


 

Live Flight TrackerFlight Track Log ✈ RPA3468 ✈ 15-May-2013 ✈ KDCA - KBTV

Flight Track Log - Related Links

Times and Time Zones

All times are in EDT time to prevent confusion due to time zone crossing. See the RPA3468 flight status page for this flight to view local times or setup timezone preferences in your user account.

Time Position Orientation Groundspeed Altitude Reporting Facility
EDT Latitude Longitude Course Direction KTS MPH feet Rate Location/Type
07:33PM 38.8000 -77.0167 38° Northeast 150 173 2,200  Level Potomac TRACON
07:34PM 38.7500 -76.9833 153° Southeast 262 302 3,700 2,280 Climbing Potomac TRACON
07:35PM 38.9665 -76.6837 67° East  Level FlightAware Approximate
07:35PM 38.7833 -76.9000 63° Northeast 298 343 6,800  Level Potomac TRACON
07:36PM 39.0153 -76.5695 57° Northeast  Level FlightAware Approximate
07:37PM 39.0593 -76.4517 63° Northeast  Level FlightAware Approximate
07:37PM 38.8675 -76.8181 37° Northeast 286 329 10,700  Level Washington Center
07:38PM 39.1080 -76.3369 61° Northeast  Level FlightAware Approximate
07:38PM 38.9328 -76.7472 40° Northeast 286 329 13,000  Level Washington Center
07:39PM 39.1445 -76.2221 38° Northeast  Level FlightAware Approximate
07:39PM 38.9756 -76.6275 65° Northeast 308 354 14,700  Level Washington Center
07:40PM 39.0164 -76.4947 68° East 339 390 16,900 2,220 Climbing Washington Center
07:41PM 39.0528 -76.3586 71° East 374 430 19,200 2,040 Climbing Washington Center
07:42PM 39.0931 -76.2175 70° East 400 460 21,100 1,740 Climbing Washington Center
07:43PM 39.1375 -76.0681 69° East 422 486 22,800 1,620 Climbing Washington Center
07:44PM 39.1817 -75.9208 69° East 437 503 24,300 1,500 Climbing Washington Center
07:45PM 39.2569 -75.7981 52° Northeast 437 503 25,800 1,320 Climbing Washington Center
07:46PM 39.3467 -75.6828 45° Northeast 437 503 27,000 960 Climbing Washington Center
07:47PM 39.4322 -75.5728 45° Northeast 432 497 27,800 840 Climbing Washington Center
07:48PM 39.5217 -75.4569 45° Northeast 432 497 28,700 360 Climbing Washington Center
07:50PM 39.7389 -75.2442 37° Northeast 427 491 29,000 60 Climbing New York Center
07:51PM 39.8231 -75.1144 50° Northeast 434 499 29,000  Level New York Center
07:52PM 39.9072 -74.9789 51° Northeast 463 533 29,000  Level New York Center
07:53PM 40.0022 -74.8247 51° Northeast 481 554 29,000  Level New York Center
07:54PM 40.0928 -74.7350 37° Northeast 481 554 29,000  Level New York Center
07:55PM 40.2172 -74.6933 14° North 444 511 29,000  Level New York Center
07:56PM 40.3481 -74.6436 16° North 439 505 29,000  Level New York Center
07:57PM 40.4681 -74.6039 14° North 444 511 29,000  Level New York Center
07:58PM 40.5883 -74.5614 15° North 444 511 29,000  Level New York Center
07:59PM 40.7125 -74.5192 14° North 444 511 29,000  Level New York Center
08:00PM 40.8325 -74.4789 14° North 444 511 29,000  Level New York Center
08:03PM 41.1206 -74.3853 14° North 450 518 29,000  Level Boston Center
08:04PM 41.2422 -74.3422 15° North 450 518 29,000  Level Boston Center
08:05PM 41.3764 -74.2936 15° North 450 518 29,000  Level Boston Center
08:06PM 41.4961 -74.2472 16° North 450 518 29,000  Level Boston Center
08:07PM 41.6092 -74.2114 13° North 458 527 29,000  Level Boston Center
08:08PM 41.7350 -74.1678 14° North 453 521 29,000  Level Boston Center
08:09PM 41.8542 -74.1264 15° North 448 516 29,000  Level Boston Center
08:10PM 41.9781 -74.0822 15° North 448 516 29,000  Level Boston Center
08:11PM 42.0764 -74.0483 14° North 455 524 29,000  Level Boston Center
08:12PM 42.2272 -73.9961 14° North 455 524 29,000  Level Boston Center
08:13PM 42.3508 -73.9486 16° North 455 524 29,000  Level Boston Center
08:14PM 42.4742 -73.9067 14° North 455 524 29,000  Level Boston Center
08:15PM 42.5978 -73.8589 16° North 455 524 29,000  Level Boston Center
08:16PM 42.7172 -73.8164 15° North 450 518 29,000  Level Boston Center
08:17PM 42.8408 -73.7681 16° North 457 526 29,000  Level Boston Center
08:18PM 42.9683 -73.7225 15° North 457 526 29,000 -780 Level Boston Center
08:19PM 43.0647 -73.6847 16° North 457 526 27,500 -2,340 Descending Boston Center
08:20PM 43.2153 -73.6281 15° North 442 509 24,400 -1,800 Descending Boston Center
08:21PM 43.3283 -73.5875 15° North 424 488 24,000 -480 Descending Boston Center
08:22PM 43.4411 -73.5467 15° North 419 482 23,500 -1,500 Descending Boston Center
08:23PM 43.5522 -73.5028 16° North 419 482 21,000 -2,520 Descending Boston Center
08:24PM 43.6608 -73.4647 14° North 414 476 18,500 -2,640 Descending Boston Center
08:25PM 43.7653 -73.4261 15° North 392 451 15,800 -2,640 Descending Boston Center
08:26PM 43.8636 -73.3875 16° North 373 429 13,300 -2,160 Descending Boston Center
08:27PM 43.9556 -73.3542 15° North 351 404 11,500 -1,740 Descending Boston Center
08:28PM 44.0369 -73.3239 15° North 315 362 9,900 -1,800 Descending Boston Center
08:29PM 44.1122 -73.2931 16° North 282 325 7,900 -1,980 Descending Boston Center
08:30PM 44.1833 -73.2767 North 270 311 6,000 -1,560 Descending Boston Center
08:31PM 44.2478 -73.2719 North 263 303 4,800 -1,080 Descending Boston Center
08:32PM 44.3208 -73.2669 North 258 297 3,900 -960 Descending Boston Center
08:33PM 44.3936 -73.2797 353° North 253 291 2,900 -900 Descending Boston Center
08:34PM 44.4561 -73.3039 345° North 243 280 2,200 -720 Descending Boston Center